Time;durP1;ratioP1;P1;durP2;ratioP2;P2;SDS_P1;SDS_P2;PMS_P1;PMS_P2;Temp;Humidity;BMP_temperature;BMP_pressure;BME280_temperature;BME280_humidity;BME280_pressure;Samples;Min_cycle;Max_cycle;Signal;HPM_P1;HPM_P2
2022/12/24 00:33:28;;;;;;;0.30;0.30;;;;;;;;;;6362989;22;20206;-91
2022/12/24 00:36:34;;;;;;;0.25;0.25;;;;;;;;;;6211621;22;1516028;-91
2022/12/24 00:39:39;;;;;;;0.30;0.30;;;;;;;;;;6303994;22;20271;-92
2022/12/24 00:42:44;;;;;;;0.30;0.30;;;;;;;;;;6303383;22;20649;-90
2022/12/24 00:45:49;;;;;;;0.35;0.35;;;;;;;;;;6303099;22;20304;-91
2022/12/24 00:48:55;;;;;;;0.40;0.40;;;;;;;;;;6302660;22;20487;-91
2022/12/24 00:52:01;;;;;;;0.30;0.30;;;;;;;;;;6323956;22;20169;-93
2022/12/24 00:55:07;;;;;;;0.30;0.30;;;;;;;;;;6305748;22;20184;-92
2022/12/24 00:58:14;;;;;;;0.30;0.30;;;;;;;;;;6303627;22;20196;-91
2022/12/24 01:01:19;;;;;;;0.40;0.40;;;;;;;;;;6305704;22;20165;-92
2022/12/24 01:07:49;;;;;;;2.53;0.50;;;;;;;;;;6303876;22;20214;-93
2022/12/24 01:10:55;;;;;;;0.30;0.30;;;;;;;;;;6303485;22;20149;-91
2022/12/24 01:14:00;;;;;;;0.30;0.30;;;;;;;;;;6303913;22;20204;-93
2022/12/24 01:17:05;;;;;;;0.30;0.30;;;;;;;;;;6302729;22;20470;-93
2022/12/24 01:20:15;;;;;;;0.28;0.28;;;;;;;;;;6302218;22;20197;-92
2022/12/24 01:23:20;;;;;;;0.77;0.77;;;;;;;;;;6303206;22;20180;-92
2022/12/24 01:26:25;;;;;;;0.25;0.25;;;;;;;;;;6302182;22;20259;-93
2022/12/24 01:29:30;;;;;;;0.65;0.60;;;;;;;;;;6303700;22;20168;-92
2022/12/24 01:32:38;;;;;;;0.50;0.50;;;;;;;;;;6303405;22;20614;-91
2022/12/24 01:35:44;;;;;;;0.60;0.60;;;;;;;;;;6300129;22;20207;-93
2022/12/24 01:38:50;;;;;;;0.47;0.47;;;;;;;;;;6322973;22;20255;-93
2022/12/24 01:45:41;;;;;;;0.30;0.30;;;;;;;;;;6211245;23;20167;-91
2022/12/24 01:48:48;;;;;;;0.40;0.40;;;;;;;;;;6209751;23;20174;-92
2022/12/24 01:51:56;;;;;;;0.40;0.40;;;;;;;;;;6212313;22;20167;-92
2022/12/24 01:55:04;;;;;;;0.43;0.43;;;;;;;;;;6209653;23;20167;-92
2022/12/24 01:58:10;;;;;;;0.30;0.30;;;;;;;;;;6210906;23;20214;-90
2022/12/24 02:01:15;;;;;;;0.30;0.30;;;;;;;;;;6211476;23;20588;-91
2022/12/24 02:04:26;;;;;;;0.30;0.30;;;;;;;;;;6208788;22;20163;-90
2022/12/24 02:07:33;;;;;;;0.30;0.30;;;;;;;;;;6211092;23;20250;-92
2022/12/24 02:10:38;;;;;;;0.30;0.30;;;;;;;;;;6209987;22;20167;-92
2022/12/24 02:13:48;;;;;;;1.40;0.82;;;;;;;;;;6211515;23;20171;-91
2022/12/24 02:16:58;;;;;;;0.32;0.32;;;;;;;;;;6211451;23;20175;-93
2022/12/24 02:20:18;;;;;;;0.20;0.20;;;;;;;;;;6210017;23;20195;-91
2022/12/24 02:23:43;;;;;;;0.30;0.30;;;;;;;;;;6209541;22;20179;-92
2022/12/24 02:27:01;;;;;;;0.30;0.30;;;;;;;;;;6209303;23;20172;-90
2022/12/24 02:30:10;;;;;;;0.30;0.30;;;;;;;;;;6208703;23;20189;-93
2022/12/24 02:33:23;;;;;;;0.30;0.30;;;;;;;;;;6209947;23;20154;-92
2022/12/24 02:36:31;;;;;;;0.30;0.30;;;;;;;;;;6211787;22;20622;-93
2022/12/24 02:39:40;;;;;;;0.30;0.30;;;;;;;;;;6211686;23;20218;-93
2022/12/24 02:42:47;;;;;;;0.35;0.35;;;;;;;;;;6239609;22;20535;-94
2022/12/24 02:45:55;;;;;;;0.30;0.30;;;;;;;;;;6272237;22;20162;-91
2022/12/24 02:49:01;;;;;;;0.30;0.30;;;;;;;;;;6272943;22;20189;-92
2022/12/24 02:52:06;;;;;;;1.40;0.60;;;;;;;;;;6274835;22;20174;-92
2022/12/24 02:55:13;;;;;;;0.20;0.20;;;;;;;;;;6274983;22;20162;-92
2022/12/24 02:58:25;;;;;;;5.22;1.33;;;;;;;;;;6275215;22;20166;-92
2022/12/24 03:01:36;;;;;;;0.30;0.30;;;;;;;;;;6274493;22;20304;-93
2022/12/24 03:04:46;;;;;;;0.40;0.40;;;;;;;;;;6272827;22;20162;-92
2022/12/24 03:07:56;;;;;;;0.40;0.40;;;;;;;;;;6273554;22;20165;-94
2022/12/24 03:11:04;;;;;;;0.52;0.52;;;;;;;;;;6273565;22;20217;-92
2022/12/24 03:14:09;;;;;;;0.60;0.60;;;;;;;;;;6270797;22;20161;-93
2022/12/24 03:17:16;;;;;;;0.20;0.20;;;;;;;;;;6273226;22;20234;-93
2022/12/24 03:20:23;;;;;;;0.30;0.30;;;;;;;;;;6271822;22;20696;-92
2022/12/24 03:23:29;;;;;;;1.67;0.55;;;;;;;;;;6273098;22;20223;-93
2022/12/24 03:26:34;;;;;;;0.43;0.43;;;;;;;;;;6272352;22;20164;-90
2022/12/24 03:29:39;;;;;;;0.70;0.70;;;;;;;;;;6272019;22;20170;-91
2022/12/24 03:32:47;;;;;;;0.30;0.30;;;;;;;;;;6271774;22;20146;-92
2022/12/24 03:35:51;;;;;;;0.50;0.50;;;;;;;;;;6271126;22;20216;-91
2022/12/24 03:38:57;;;;;;;0.40;0.40;;;;;;;;;;6270677;22;20189;-91
2022/12/24 03:42:02;;;;;;;0.40;0.40;;;;;;;;;;6276305;22;20185;-92
2022/12/24 03:45:34;;;;;;;0.60;0.52;;;;;;;;;;6303109;22;20608;-92
2022/12/24 03:48:41;;;;;;;0.30;0.30;;;;;;;;;;6304012;22;20149;-91
2022/12/24 03:51:45;;;;;;;0.30;0.30;;;;;;;;;;6303612;22;20183;-91
2022/12/24 03:54:50;;;;;;;0.30;0.30;;;;;;;;;;6303690;22;20165;-91
2022/12/24 03:57:55;;;;;;;0.85;0.73;;;;;;;;;;6302550;22;20243;-91
2022/12/24 04:01:01;;;;;;;0.40;0.40;;;;;;;;;;6303507;22;20197;-92
2022/12/24 04:04:07;;;;;;;0.30;0.30;;;;;;;;;;6302839;22;20162;-92
2022/12/24 04:07:12;;;;;;;0.57;0.57;;;;;;;;;;6301805;22;20182;-92
2022/12/24 04:10:17;;;;;;;0.40;0.40;;;;;;;;;;6304837;22;20656;-92
2022/12/24 04:13:22;;;;;;;0.30;0.30;;;;;;;;;;6303661;22;20164;-93
2022/12/24 04:16:26;;;;;;;0.30;0.30;;;;;;;;;;6303503;22;20156;-91
2022/12/24 04:19:33;;;;;;;0.30;0.30;;;;;;;;;;6302470;22;20189;-92
2022/12/24 04:22:38;;;;;;;0.20;0.20;;;;;;;;;;6302191;22;20193;-89
2022/12/24 04:25:43;;;;;;;0.30;0.30;;;;;;;;;;6303705;22;20192;-92
2022/12/24 04:28:49;;;;;;;0.45;0.40;;;;;;;;;;6304562;22;20164;-92
2022/12/24 04:31:53;;;;;;;0.40;0.40;;;;;;;;;;6302444;22;20161;-93
2022/12/24 04:35:00;;;;;;;0.73;0.60;;;;;;;;;;6302572;22;20170;-91
2022/12/24 04:38:05;;;;;;;0.30;0.30;;;;;;;;;;6304630;22;20203;-91
2022/12/24 04:41:12;;;;;;;1.50;0.82;;;;;;;;;;6303244;22;20208;-93
2022/12/24 04:48:37;;;;;;;0.30;0.30;;;;;;;;;;6321793;22;20659;-93
2022/12/24 04:51:44;;;;;;;0.30;0.30;;;;;;;;;;6303369;22;20149;-93
2022/12/24 04:54:49;;;;;;;0.30;0.30;;;;;;;;;;6304426;22;20682;-93
2022/12/24 04:57:54;;;;;;;0.63;0.60;;;;;;;;;;6305006;22;20255;-92
2022/12/24 05:01:04;;;;;;;0.40;0.40;;;;;;;;;;6301212;22;20650;-90
2022/12/24 05:04:10;;;;;;;0.80;0.57;;;;;;;;;;6302126;22;20156;-90
2022/12/24 05:07:16;;;;;;;0.45;0.45;;;;;;;;;;6303974;22;20218;-92
2022/12/24 05:10:21;;;;;;;0.30;0.30;;;;;;;;;;6304029;22;20219;-92
2022/12/24 05:13:26;;;;;;;0.40;0.40;;;;;;;;;;6303822;22;20164;-91
2022/12/24 05:16:32;;;;;;;0.30;0.30;;;;;;;;;;6302688;22;20157;-91
2022/12/24 05:19:37;;;;;;;0.60;0.60;;;;;;;;;;6304148;22;20177;-92
2022/12/24 05:26:23;;;;;;;0.50;0.50;;;;;;;;;;6303281;22;20161;-91
2022/12/24 05:29:28;;;;;;;0.82;0.82;;;;;;;;;;6302650;22;20211;-93
2022/12/24 05:32:33;;;;;;;0.40;0.40;;;;;;;;;;6302805;22;20172;-92
2022/12/24 05:35:39;;;;;;;0.30;0.30;;;;;;;;;;6303000;22;20166;-90
2022/12/24 05:38:45;;;;;;;0.50;0.50;;;;;;;;;;6302623;22;20165;-90
2022/12/24 05:41:50;;;;;;;0.85;0.85;;;;;;;;;;6304202;22;20157;-90
2022/12/24 05:45:29;;;;;;;0.40;0.40;;;;;;;;;;6303586;22;20240;-90
2022/12/24 05:48:35;;;;;;;0.63;0.52;;;;;;;;;;6301506;22;20166;-90
2022/12/24 05:51:40;;;;;;;0.40;0.40;;;;;;;;;;6301000;22;20164;-90
2022/12/24 05:54:47;;;;;;;0.73;0.63;;;;;;;;;;6300340;22;20250;-90
2022/12/24 05:57:51;;;;;;;0.50;0.50;;;;;;;;;;6299861;22;20274;-91
2022/12/24 06:00:57;;;;;;;0.30;0.30;;;;;;;;;;6300533;22;20192;-92
2022/12/24 06:04:03;;;;;;;0.30;0.30;;;;;;;;;;6302235;22;20211;-92
2022/12/24 06:07:10;;;;;;;0.95;0.60;;;;;;;;;;6303662;22;20164;-90
2022/12/24 06:10:16;;;;;;;0.30;0.30;;;;;;;;;;6301494;22;20172;-90
2022/12/24 06:13:21;;;;;;;0.73;0.68;;;;;;;;;;6303852;22;20211;-91
2022/12/24 06:16:27;;;;;;;0.30;0.30;;;;;;;;;;6301995;22;20173;-92
2022/12/24 06:19:32;;;;;;;0.30;0.30;;;;;;;;;;6304338;22;20181;-91
2022/12/24 06:22:38;;;;;;;0.30;0.30;;;;;;;;;;6306062;22;20177;-91
2022/12/24 06:25:44;;;;;;;0.30;0.30;;;;;;;;;;6304432;22;20165;-91
2022/12/24 06:28:51;;;;;;;0.40;0.40;;;;;;;;;;6305443;22;20304;-91
2022/12/24 06:31:56;;;;;;;0.63;0.57;;;;;;;;;;6305003;22;20168;-91
2022/12/24 06:35:01;;;;;;;4.47;0.73;;;;;;;;;;6305605;22;20200;-91
2022/12/24 06:38:06;;;;;;;0.32;0.32;;;;;;;;;;6305672;22;20216;-92
2022/12/24 06:41:13;;;;;;;0.30;0.30;;;;;;;;;;6306298;22;20176;-90
2022/12/24 06:47:52;;;;;;;0.30;0.30;;;;;;;;;;6308863;22;20216;-93
2022/12/24 06:50:57;;;;;;;0.40;0.40;;;;;;;;;;6308342;22;20168;-92
2022/12/24 06:54:02;;;;;;;0.65;0.65;;;;;;;;;;6307039;22;20145;-92
2022/12/24 06:57:08;;;;;;;0.40;0.40;;;;;;;;;;6306353;22;20200;-91
2022/12/24 07:00:14;;;;;;;3.60;1.05;;;;;;;;;;6305909;22;20189;-91
2022/12/24 07:03:20;;;;;;;0.60;0.60;;;;;;;;;;6307675;22;20157;-93
2022/12/24 07:06:27;;;;;;;0.60;0.60;;;;;;;;;;6308577;22;20164;-91
2022/12/24 07:09:32;;;;;;;0.30;0.30;;;;;;;;;;6307290;22;20169;-92
2022/12/24 07:12:39;;;;;;;0.90;0.65;;;;;;;;;;6306818;22;20165;-92
2022/12/24 07:15:44;;;;;;;1.10;0.95;;;;;;;;;;6306268;22;20165;-91
2022/12/24 07:18:50;;;;;;;0.45;0.45;;;;;;;;;;6305737;22;20176;-92
2022/12/24 07:21:55;;;;;;;0.55;0.40;;;;;;;;;;6306964;22;20169;-91
2022/12/24 07:25:00;;;;;;;0.30;0.30;;;;;;;;;;6305967;22;20169;-91
2022/12/24 07:28:07;;;;;;;0.30;0.30;;;;;;;;;;6307445;22;20173;-92
2022/12/24 07:31:12;;;;;;;1.65;0.77;;;;;;;;;;6307034;22;20168;-92
2022/12/24 07:34:17;;;;;;;0.63;0.60;;;;;;;;;;6308074;22;20168;-93
2022/12/24 07:37:23;;;;;;;0.60;0.60;;;;;;;;;;6306891;22;20160;-93
2022/12/24 07:40:28;;;;;;;4.72;0.70;;;;;;;;;;6306364;22;20193;-92
2022/12/24 07:43:38;;;;;;;0.40;0.40;;;;;;;;;;6293626;22;20228;-92
2022/12/24 07:46:44;;;;;;;0.40;0.40;;;;;;;;;;6292894;22;20494;-93
2022/12/24 07:49:50;;;;;;;0.45;0.45;;;;;;;;;;6293107;22;20251;-91
2022/12/24 07:52:54;;;;;;;0.50;0.50;;;;;;;;;;6293383;22;20189;-93
2022/12/24 07:55:59;;;;;;;0.55;0.55;;;;;;;;;;6293458;22;20149;-93
2022/12/24 07:59:06;;;;;;;4.00;2.88;;;;;;;;;;6292595;22;20181;-92
2022/12/24 08:02:12;;;;;;;7.90;3.28;;;;;;;;;;6293256;22;20161;-91
2022/12/24 08:05:18;;;;;;;1.25;1.15;;;;;;;;;;6292711;22;20166;-93
2022/12/24 08:08:23;;;;;;;6.45;2.15;;;;;;;;;;6294126;22;20174;-92
2022/12/24 08:11:29;;;;;;;3.45;1.58;;;;;;;;;;6293139;22;20166;-91
2022/12/24 08:14:35;;;;;;;0.70;0.70;;;;;;;;;;6293428;22;20182;-91
2022/12/24 08:17:40;;;;;;;0.90;0.90;;;;;;;;;;6292477;22;20172;-93
2022/12/24 08:20:46;;;;;;;1.58;1.08;;;;;;;;;;6292105;22;20710;-90
2022/12/24 08:23:51;;;;;;;2.33;1.27;;;;;;;;;;6292847;22;20495;-93
2022/12/24 08:26:56;;;;;;;0.77;0.77;;;;;;;;;;6294467;22;20173;-92
2022/12/24 08:30:03;;;;;;;8.07;2.00;;;;;;;;;;6291245;22;20166;-89
2022/12/24 08:33:09;;;;;;;3.97;1.92;;;;;;;;;;6292913;22;20149;-92
2022/12/24 08:36:14;;;;;;;5.70;1.80;;;;;;;;;;6295050;22;20161;-91
2022/12/24 08:39:20;;;;;;;1.90;1.73;;;;;;;;;;6292385;22;20247;-91
2022/12/24 08:42:25;;;;;;;1.05;1.05;;;;;;;;;;6301281;22;20241;-94
2022/12/24 08:45:31;;;;;;;6.70;2.72;;;;;;;;;;6305849;22;20212;-91
2022/12/24 08:48:37;;;;;;;3.00;1.35;;;;;;;;;;6305622;22;20208;-93
2022/12/24 08:51:42;;;;;;;0.82;0.82;;;;;;;;;;6305970;22;20620;-93
2022/12/24 08:54:47;;;;;;;3.40;2.03;;;;;;;;;;6304316;22;20157;-93
2022/12/24 08:57:52;;;;;;;0.98;0.98;;;;;;;;;;6305292;22;20173;-92
2022/12/24 09:00:59;;;;;;;0.50;0.50;;;;;;;;;;6304862;22;20217;-91
2022/12/24 09:04:05;;;;;;;1.08;0.82;;;;;;;;;;6305282;22;20165;-91
2022/12/24 09:07:10;;;;;;;1.05;0.98;;;;;;;;;;6304425;22;20211;-91
2022/12/24 09:10:16;;;;;;;2.15;1.40;;;;;;;;;;6305757;22;20158;-92
2022/12/24 09:13:21;;;;;;;0.40;0.40;;;;;;;;;;6305221;22;20169;-92
2022/12/24 09:16:28;;;;;;;0.30;0.30;;;;;;;;;;6305414;22;20168;-92
2022/12/24 09:19:34;;;;;;;0.82;0.82;;;;;;;;;;6304499;22;20233;-93
2022/12/24 09:22:40;;;;;;;0.52;0.52;;;;;;;;;;6305353;22;20164;-93
2022/12/24 09:25:45;;;;;;;1.52;0.77;;;;;;;;;;6304086;22;20497;-90
2022/12/24 09:28:52;;;;;;;2.13;1.20;;;;;;;;;;6304389;22;20166;-92
2022/12/24 09:31:59;;;;;;;0.57;0.57;;;;;;;;;;6304902;22;20200;-92
2022/12/24 09:35:05;;;;;;;0.40;0.40;;;;;;;;;;6303695;22;20193;-93
2022/12/24 09:38:11;;;;;;;0.40;0.40;;;;;;;;;;6304769;22;20164;-93
2022/12/24 09:41:21;;;;;;;0.73;0.73;;;;;;;;;;6304686;22;20191;-89
2022/12/24 09:48:53;;;;;;;0.73;0.73;;;;;;;;;;6293092;22;20170;-92
2022/12/24 09:52:09;;;;;;;0.43;0.43;;;;;;;;;;6290874;22;20209;-91
2022/12/24 09:55:21;;;;;;;1.00;0.90;;;;;;;;;;6289659;22;20162;-92
2022/12/24 09:58:28;;;;;;;1.00;0.95;;;;;;;;;;6290185;22;20256;-92
2022/12/24 10:01:34;;;;;;;0.43;0.43;;;;;;;;;;6289921;22;20193;-90
2022/12/24 10:04:40;;;;;;;0.60;0.60;;;;;;;;;;6290049;22;20204;-91
2022/12/24 10:07:49;;;;;;;1.20;1.05;;;;;;;;;;6289365;22;20165;-91
2022/12/24 10:10:55;;;;;;;1.85;0.90;;;;;;;;;;6288574;22;20158;-91
2022/12/24 10:14:04;;;;;;;0.52;0.52;;;;;;;;;;6289055;22;20204;-90
2022/12/24 10:17:18;;;;;;;0.73;0.65;;;;;;;;;;6291465;22;20150;-90
2022/12/24 10:20:33;;;;;;;0.45;0.45;;;;;;;;;;6289537;22;20161;-91
2022/12/24 10:23:41;;;;;;;0.88;0.88;;;;;;;;;;6289377;22;20170;-91
2022/12/24 10:26:48;;;;;;;0.50;0.50;;;;;;;;;;6290840;22;20252;-90
2022/12/24 10:29:57;;;;;;;0.40;0.40;;;;;;;;;;6289665;22;20170;-91
2022/12/24 10:33:03;;;;;;;0.60;0.60;;;;;;;;;;6288887;22;20177;-89
2022/12/24 10:36:11;;;;;;;0.30;0.30;;;;;;;;;;6288263;22;20222;-90
2022/12/24 10:39:18;;;;;;;0.82;0.82;;;;;;;;;;6288891;22;20359;-91
2022/12/24 10:42:25;;;;;;;0.90;0.77;;;;;;;;;;6297385;22;20247;-90
2022/12/24 10:45:36;;;;;;;0.30;0.30;;;;;;;;;;6294917;22;20196;-91
2022/12/24 10:48:42;;;;;;;0.70;0.70;;;;;;;;;;6301686;22;20203;-90
2022/12/24 10:51:51;;;;;;;0.40;0.40;;;;;;;;;;6157490;23;20236;-90
2022/12/24 10:55:09;;;;;;;0.60;0.50;;;;;;;;;;5992710;23;20189;-90
2022/12/24 10:58:17;;;;;;;0.95;0.80;;;;;;;;;;5831007;23;20231;-89
2022/12/24 11:01:42;;;;;;;3.33;0.60;;;;;;;;;;5996617;23;20196;-92
2022/12/24 11:04:48;;;;;;;2.70;1.23;;;;;;;;;;5994795;23;20241;-90
2022/12/24 11:08:01;;;;;;;0.55;0.55;;;;;;;;;;5996829;23;20177;-88
2022/12/24 11:11:08;;;;;;;4.90;1.30;;;;;;;;;;5995699;24;20172;-89
2022/12/24 11:14:15;;;;;;;0.85;0.85;;;;;;;;;;5995651;23;20161;-92
2022/12/24 11:17:21;;;;;;;0.32;0.32;;;;;;;;;;5996351;23;20705;-90
2022/12/24 11:20:28;;;;;;;0.73;0.73;;;;;;;;;;5995609;23;20164;-90
2022/12/24 11:23:35;;;;;;;2.80;0.95;;;;;;;;;;5998039;24;20161;-92
2022/12/24 11:26:41;;;;;;;0.98;0.95;;;;;;;;;;5997980;23;20624;-90
2022/12/24 11:29:46;;;;;;;0.38;0.38;;;;;;;;;;5994529;23;20232;-90
2022/12/24 11:33:12;;;;;;;0.60;0.60;;;;;;;;;;5998033;23;20249;-90
2022/12/24 11:36:20;;;;;;;3.33;1.35;;;;;;;;;;5994988;23;20172;-89
2022/12/24 11:39:27;;;;;;;1.00;0.95;;;;;;;;;;5994748;23;20174;-91
2022/12/24 11:42:34;;;;;;;0.50;0.50;;;;;;;;;;5995020;23;20197;-91
2022/12/24 11:45:48;;;;;;;0.75;0.52;;;;;;;;;;5996578;23;20160;-91
2022/12/24 11:49:05;;;;;;;0.40;0.40;;;;;;;;;;5995881;23;20169;-90
2022/12/24 11:52:17;;;;;;;0.32;0.32;;;;;;;;;;5996857;24;20176;-90
2022/12/24 11:55:29;;;;;;;1.05;1.02;;;;;;;;;;5996650;23;20893;-91
2022/12/24 11:58:38;;;;;;;14.15;0.50;;;;;;;;;;5901415;23;20587;-90
2022/12/24 12:01:49;;;;;;;0.40;0.40;;;;;;;;;;5925459;24;20235;-91
2022/12/24 12:04:57;;;;;;;1.10;1.08;;;;;;;;;;5926287;24;20233;-89
2022/12/24 12:08:07;;;;;;;1.13;1.02;;;;;;;;;;5927510;24;20263;-91
2022/12/24 12:11:14;;;;;;;0.30;0.30;;;;;;;;;;5927276;23;20329;-90
2022/12/24 12:14:21;;;;;;;2.25;0.82;;;;;;;;;;5926592;23;20186;-89
2022/12/24 12:17:30;;;;;;;1.05;0.90;;;;;;;;;;5929659;24;20197;-91
2022/12/24 12:20:36;;;;;;;0.30;0.30;;;;;;;;;;5931314;23;20167;-89
2022/12/24 12:23:45;;;;;;;0.40;0.40;;;;;;;;;;5928259;24;20182;-90
2022/12/24 12:26:56;;;;;;;0.30;0.30;;;;;;;;;;5929279;24;20232;-90
2022/12/24 12:30:03;;;;;;;0.52;0.52;;;;;;;;;;5932164;23;20233;-90
2022/12/24 12:33:15;;;;;;;0.40;0.40;;;;;;;;;;5929885;23;20198;-89
2022/12/24 12:36:25;;;;;;;0.50;0.50;;;;;;;;;;5929349;24;20191;-88
2022/12/24 12:39:31;;;;;;;0.40;0.40;;;;;;;;;;5928706;23;20211;-90
2022/12/24 12:42:39;;;;;;;0.50;0.50;;;;;;;;;;5927251;24;20207;-90
2022/12/24 12:45:48;;;;;;;0.40;0.40;;;;;;;;;;5928175;23;20158;-90
2022/12/24 12:49:05;;;;;;;0.38;0.38;;;;;;;;;;5926870;24;20265;-88
2022/12/24 12:52:15;;;;;;;0.82;0.70;;;;;;;;;;5930113;24;20175;-91
2022/12/24 12:55:27;;;;;;;0.70;0.70;;;;;;;;;;5930003;23;20175;-89
2022/12/24 12:58:36;;;;;;;1.75;0.85;;;;;;;;;;5970890;23;20199;-90
2022/12/24 13:01:46;;;;;;;0.38;0.38;;;;;;;;;;6040282;23;20215;-90
2022/12/24 13:05:14;;;;;;;0.30;0.30;;;;;;;;;;6023127;23;20179;-89
2022/12/24 13:08:38;;;;;;;0.30;0.30;;;;;;;;;;6025838;23;20289;-91
2022/12/24 13:11:52;;;;;;;1.88;1.48;;;;;;;;;;6023347;23;20176;-90
2022/12/24 13:15:13;;;;;;;0.70;0.70;;;;;;;;;;6038884;23;20184;-89
2022/12/24 13:18:31;;;;;;;0.32;0.32;;;;;;;;;;6023898;23;20164;-90
2022/12/24 13:21:35;;;;;;;0.40;0.40;;;;;;;;;;6040536;23;20203;-89
2022/12/24 13:24:41;;;;;;;0.55;0.55;;;;;;;;;;6023749;23;20197;-90
2022/12/24 13:27:46;;;;;;;0.40;0.40;;;;;;;;;;6025512;23;20164;-89
2022/12/24 13:30:52;;;;;;;0.50;0.50;;;;;;;;;;6040061;23;20172;-90
2022/12/24 13:34:03;;;;;;;0.63;0.63;;;;;;;;;;6039430;23;20163;-91
2022/12/24 13:37:20;;;;;;;0.65;0.50;;;;;;;;;;6023361;23;20224;-90
2022/12/24 13:40:28;;;;;;;0.40;0.40;;;;;;;;;;6024839;23;20178;-89
2022/12/24 13:43:48;;;;;;;0.57;0.57;;;;;;;;;;6023397;23;20203;-93
2022/12/24 13:46:58;;;;;;;0.65;0.65;;;;;;;;;;6026288;23;20696;-90
2022/12/24 13:50:22;;;;;;;0.45;0.45;;;;;;;;;;6040917;23;20180;-90
2022/12/24 13:53:29;;;;;;;0.73;0.73;;;;;;;;;;6023697;23;20216;-90
2022/12/24 13:56:37;;;;;;;0.40;0.40;;;;;;;;;;6062002;23;20191;-91
2022/12/24 13:59:43;;;;;;;0.82;0.82;;;;;;;;;;6149339;23;20188;-89
2022/12/24 14:02:51;;;;;;;11.60;3.20;;;;;;;;;;6150414;23;20196;-89
2022/12/24 14:05:59;;;;;;;8.85;2.60;;;;;;;;;;6149517;23;20172;-89
2022/12/24 14:09:07;;;;;;;6.43;2.15;;;;;;;;;;6151877;23;20244;-90
2022/12/24 14:12:31;;;;;;;10.43;2.42;;;;;;;;;;6148076;23;20192;-88
2022/12/24 14:16:01;;;;;;;5.88;2.00;;;;;;;;;;6147770;23;20160;-89
2022/12/24 14:19:14;;;;;;;10.27;1.83;;;;;;;;;;6149251;23;20168;-89
2022/12/24 14:22:26;;;;;;;6.00;1.90;;;;;;;;;;6148425;23;20706;-89
2022/12/24 14:25:32;;;;;;;7.90;1.95;;;;;;;;;;6147809;23;20177;-90
2022/12/24 14:28:40;;;;;;;8.18;2.35;;;;;;;;;;6147569;23;20157;-90
2022/12/24 14:31:52;;;;;;;9.25;3.13;;;;;;;;;;6147440;23;20176;-88
2022/12/24 14:35:08;;;;;;;8.80;3.08;;;;;;;;;;6149136;23;20189;-91
2022/12/24 14:38:17;;;;;;;14.32;3.00;;;;;;;;;;6147694;23;20188;-90
2022/12/24 14:41:40;;;;;;;5.85;1.90;;;;;;;;;;6149712;23;20205;-89
2022/12/24 14:44:49;;;;;;;8.80;2.40;;;;;;;;;;6150060;23;20173;-89
2022/12/24 14:47:58;;;;;;;10.52;2.03;;;;;;;;;;6151725;23;20656;-89
2022/12/24 14:51:07;;;;;;;14.52;3.17;;;;;;;;;;6147309;23;20163;-89
2022/12/24 14:54:27;;;;;;;12.35;3.58;;;;;;;;;;6148976;23;20149;-90
2022/12/24 14:57:34;;;;;;;7.53;2.30;;;;;;;;;;6183235;23;20190;-89
2022/12/24 15:00:39;;;;;;;11.32;2.90;;;;;;;;;;6223029;23;20193;-90
2022/12/24 15:03:44;;;;;;;9.68;2.60;;;;;;;;;;6241512;22;20225;-91
2022/12/24 15:06:51;;;;;;;9.57;2.65;;;;;;;;;;6240892;23;20273;-91
2022/12/24 15:09:58;;;;;;;10.18;3.67;;;;;;;;;;6240805;23;20229;-88
2022/12/24 15:13:05;;;;;;;10.88;4.15;;;;;;;;;;6240981;23;20165;-90
2022/12/24 15:16:13;;;;;;;10.95;3.50;;;;;;;;;;6239665;23;20167;-89
2022/12/24 15:19:21;;;;;;;17.55;4.10;;;;;;;;;;6241552;22;20158;-91
2022/12/24 15:22:28;;;;;;;25.50;8.65;;;;;;;;;;6239872;22;20197;-93
2022/12/24 15:29:32;;;;;;;28.65;10.10;;;;;;;;;;6252569;22;20154;-90
2022/12/24 15:32:41;;;;;;;25.35;8.65;;;;;;;;;;6244863;23;20170;-91
2022/12/24 15:35:52;;;;;;;24.23;7.75;;;;;;;;;;6244499;22;20252;-90
2022/12/24 15:38:58;;;;;;;23.35;9.23;;;;;;;;;;6244153;22;20231;-91
2022/12/24 15:42:13;;;;;;;28.75;8.60;;;;;;;;;;6246841;23;20170;-88
2022/12/24 15:45:22;;;;;;;31.50;10.75;;;;;;;;;;6244504;23;20517;-92
2022/12/24 15:48:28;;;;;;;23.55;7.78;;;;;;;;;;6245967;22;20167;-89
2022/12/24 15:51:34;;;;;;;16.15;5.30;;;;;;;;;;6244537;23;20170;-90
2022/12/24 15:54:45;;;;;;;28.77;10.18;;;;;;;;;;6240778;23;20171;-92
2022/12/24 15:57:50;;;;;;;25.80;10.45;;;;;;;;;;6228510;23;20210;-90
2022/12/24 16:01:04;;;;;;;23.60;8.27;;;;;;;;;;6243472;22;20225;-90
2022/12/24 16:04:13;;;;;;;18.70;7.63;;;;;;;;;;6241801;22;20198;-91
2022/12/24 16:07:25;;;;;;;17.88;6.78;;;;;;;;;;6241446;22;20412;-91
2022/12/24 16:10:30;;;;;;;16.65;4.90;;;;;;;;;;6242620;23;20190;-91
2022/12/24 16:13:36;;;;;;;20.52;7.45;;;;;;;;;;6240973;23;20494;-90
2022/12/24 16:16:43;;;;;;;22.33;8.52;;;;;;;;;;6242384;22;20178;-90
2022/12/24 16:19:50;;;;;;;30.08;8.48;;;;;;;;;;6240106;22;20628;-90
2022/12/24 16:22:55;;;;;;;17.48;5.43;;;;;;;;;;6240261;23;20194;-91
2022/12/24 16:26:00;;;;;;;14.05;5.70;;;;;;;;;;6238362;23;20507;-88
2022/12/24 16:29:05;;;;;;;18.38;6.60;;;;;;;;;;6240492;23;20218;-91
2022/12/24 16:32:23;;;;;;;15.13;5.00;;;;;;;;;;6242541;23;20171;-92
2022/12/24 16:35:32;;;;;;;13.82;4.68;;;;;;;;;;6242404;23;20159;-91
2022/12/24 16:39:21;;;;;;;10.45;4.22;;;;;;;;;;6242699;23;20217;-89
2022/12/24 16:45:29;;;;;;;13.05;4.10;;;;;;;;;;6241538;23;20183;-91
2022/12/24 16:48:37;;;;;;;23.00;7.57;;;;;;;;;;6240514;22;20252;-91
2022/12/24 16:51:42;;;;;;;23.52;8.50;;;;;;;;;;6239773;23;20178;-92
2022/12/24 16:54:49;;;;;;;17.23;5.72;;;;;;;;;;6239603;23;20170;-93
2022/12/24 16:57:54;;;;;;;14.40;6.07;;;;;;;;;;6244537;22;20232;-89
2022/12/24 17:01:01;;;;;;;15.07;6.10;;;;;;;;;;6261284;22;20219;-92
2022/12/24 17:04:07;;;;;;;16.13;5.65;;;;;;;;;;6259284;22;20197;-91
2022/12/24 17:07:13;;;;;;;21.75;7.85;;;;;;;;;;6259961;22;20250;-90
2022/12/24 17:10:18;;;;;;;14.45;5.13;;;;;;;;;;6260577;22;20234;-90
2022/12/24 17:13:23;;;;;;;23.42;6.93;;;;;;;;;;6258360;23;20165;-90
2022/12/24 17:16:29;;;;;;;24.65;7.78;;;;;;;;;;6259134;22;20167;-92
2022/12/24 17:19:35;;;;;;;26.73;8.27;;;;;;;;;;6259798;23;20248;-91
2022/12/24 17:22:40;;;;;;;24.67;8.75;;;;;;;;;;6259463;22;20194;-91
2022/12/24 17:25:47;;;;;;;24.15;7.22;;;;;;;;;;6259064;23;20170;-90
2022/12/24 17:28:54;;;;;;;11.45;4.70;;;;;;;;;;6258210;22;20170;-90
2022/12/24 17:31:59;;;;;;;19.10;7.25;;;;;;;;;;6259086;23;20185;-90
2022/12/24 17:35:06;;;;;;;24.80;7.47;;;;;;;;;;6258822;23;20174;-91
2022/12/24 17:38:11;;;;;;;17.33;6.10;;;;;;;;;;6258201;22;20166;-91
2022/12/24 17:41:18;;;;;;;11.77;4.45;;;;;;;;;;6259702;23;20177;-87
2022/12/24 17:44:29;;;;;;;11.60;4.45;;;;;;;;;;6257754;22;20206;-89
2022/12/24 17:47:35;;;;;;;17.58;6.07;;;;;;;;;;6257979;22;20221;-90
2022/12/24 17:50:41;;;;;;;24.50;7.00;;;;;;;;;;6258117;23;20165;-91
2022/12/24 17:53:48;;;;;;;26.23;8.20;;;;;;;;;;6259455;23;20171;-91
2022/12/24 17:56:53;;;;;;;20.13;6.05;;;;;;;;;;6262632;22;20210;-90
2022/12/24 17:59:59;;;;;;;14.68;4.88;;;;;;;;;;6271951;22;20165;-90
2022/12/24 18:03:04;;;;;;;11.05;3.55;;;;;;;;;;6270814;22;20190;-92
2022/12/24 18:06:11;;;;;;;10.85;3.75;;;;;;;;;;6271288;22;20150;-89
2022/12/24 18:09:17;;;;;;;11.05;2.80;;;;;;;;;;6272286;22;20169;-91
2022/12/24 18:12:22;;;;;;;9.95;3.40;;;;;;;;;;6272144;22;20186;-91
2022/12/24 18:15:27;;;;;;;10.93;3.88;;;;;;;;;;6273102;22;20644;-93
2022/12/24 18:18:32;;;;;;;10.15;3.83;;;;;;;;;;6272071;22;20227;-89
2022/12/24 18:21:41;;;;;;;15.15;4.68;;;;;;;;;;6271185;22;20165;-90
2022/12/24 18:24:47;;;;;;;9.95;3.85;;;;;;;;;;6273236;22;20176;-91
2022/12/24 18:27:52;;;;;;;12.15;4.82;;;;;;;;;;6274075;22;20169;-91
2022/12/24 18:30:58;;;;;;;19.30;5.50;;;;;;;;;;6274176;22;20240;-90
2022/12/24 18:34:04;;;;;;;9.85;4.03;;;;;;;;;;6274242;22;20617;-92
2022/12/24 18:37:13;;;;;;;12.65;4.38;;;;;;;;;;6273454;22;20212;-89
2022/12/24 18:40:19;;;;;;;8.65;4.00;;;;;;;;;;6272663;22;20166;-90
2022/12/24 18:43:28;;;;;;;11.10;3.90;;;;;;;;;;6272602;22;20651;-89
2022/12/24 18:46:34;;;;;;;20.90;6.32;;;;;;;;;;6272775;22;20244;-88
2022/12/24 18:49:39;;;;;;;19.33;6.30;;;;;;;;;;6274019;22;20170;-91
2022/12/24 18:52:46;;;;;;;14.77;5.45;;;;;;;;;;6273616;22;20157;-89
2022/12/24 18:55:51;;;;;;;14.30;5.15;;;;;;;;;;6272877;22;20170;-88
2022/12/24 18:58:57;;;;;;;18.60;5.95;;;;;;;;;;6259420;22;20262;-91
2022/12/24 19:02:02;;;;;;;16.90;7.10;;;;;;;;;;6258606;22;20286;-89
2022/12/24 19:05:08;;;;;;;18.60;7.50;;;;;;;;;;6259725;22;20174;-89
2022/12/24 19:08:15;;;;;;;15.50;6.25;;;;;;;;;;6260266;22;20174;-91
2022/12/24 19:11:20;;;;;;;13.90;5.65;;;;;;;;;;6259628;22;20265;-88
2022/12/24 19:14:25;;;;;;;14.10;5.90;;;;;;;;;;6260096;22;20621;-93
2022/12/24 19:17:31;;;;;;;19.33;7.10;;;;;;;;;;6262584;22;20182;-90
2022/12/24 19:20:38;;;;;;;19.13;5.43;;;;;;;;;;6262264;22;20178;-89
2022/12/24 19:23:46;;;;;;;14.18;4.80;;;;;;;;;;6261905;22;20637;-90
2022/12/24 19:26:51;;;;;;;20.00;6.57;;;;;;;;;;6260169;22;20162;-88
2022/12/24 19:29:58;;;;;;;15.93;6.65;;;;;;;;;;6262917;22;20327;-90
2022/12/24 19:33:03;;;;;;;16.20;6.32;;;;;;;;;;6264855;22;20492;-92
2022/12/24 19:36:09;;;;;;;46.90;23.27;;;;;;;;;;6262143;22;20166;-89
2022/12/24 19:39:19;;;;;;;25.70;10.25;;;;;;;;;;6261143;23;20167;-89
2022/12/24 19:42:24;;;;;;;18.63;8.48;;;;;;;;;;6259614;22;20173;-90